sensor_id;sensor_type;location;lat;lon;timestamp;pressure;altitude;pressure_sealevel;temperature;humidity
46574;BME280;32299;53.366;-1.544;2022-10-04T00:01:51;99023.48;;;16.16;44.75
46574;BME280;32299;53.366;-1.544;2022-10-04T00:04:23;99015.13;;;16.45;44.78
46574;BME280;32299;53.366;-1.544;2022-10-04T00:06:56;99008.07;;;16.49;44.58
46574;BME280;32299;53.366;-1.544;2022-10-04T00:09:27;99003.98;;;16.26;44.74
46574;BME280;32299;53.366;-1.544;2022-10-04T00:11:59;98996.21;;;16.56;44.73
46574;BME280;32299;53.366;-1.544;2022-10-04T00:14:30;98990.37;;;16.58;44.67
46574;BME280;32299;53.366;-1.544;2022-10-04T00:17:07;98987.34;;;16.35;44.48
46574;BME280;32299;53.366;-1.544;2022-10-04T00:19:40;98990.85;;;16.64;44.55
46574;BME280;32299;53.366;-1.544;2022-10-04T00:22:11;98994.64;;;16.41;44.31
46574;BME280;32299;53.366;-1.544;2022-10-04T00:25:13;98998.97;;;16.36;44.70
46574;BME280;32299;53.366;-1.544;2022-10-04T00:28:15;99002.58;;;16.36;44.17
46574;BME280;32299;53.366;-1.544;2022-10-04T00:30:42;98998.30;;;16.43;43.79
46574;BME280;32299;53.366;-1.544;2022-10-04T00:33:45;98994.70;;;16.67;43.36
46574;BME280;32299;53.366;-1.544;2022-10-04T00:36:51;98982.24;;;17.32;43.17
46574;BME280;32299;53.366;-1.544;2022-10-04T00:40:19;98982.25;;;17.59;43.23
46574;BME280;32299;53.366;-1.544;2022-10-04T00:42:53;98978.88;;;16.66;43.05
46574;BME280;32299;53.366;-1.544;2022-10-04T00:45:27;98973.81;;;17.03;42.94
46574;BME280;32299;53.366;-1.544;2022-10-04T00:48:04;98976.34;;;17.12;42.59
46574;BME280;32299;53.366;-1.544;2022-10-04T00:50:40;98968.13;;;16.91;42.64
46574;BME280;32299;53.366;-1.544;2022-10-04T00:53:17;98961.72;;;17.21;42.68
46574;BME280;32299;53.366;-1.544;2022-10-04T00:55:50;98957.09;;;17.01;42.52
46574;BME280;32299;53.366;-1.544;2022-10-04T00:58:22;98957.37;;;17.05;42.43
46574;BME280;32299;53.366;-1.544;2022-10-04T01:00:52;98958.65;;;17.07;42.43
46574;BME280;32299;53.366;-1.544;2022-10-04T01:03:26;98955.12;;;17.36;42.42
46574;BME280;32299;53.366;-1.544;2022-10-04T01:05:57;98956.11;;;17.08;42.54
46574;BME280;32299;53.366;-1.544;2022-10-04T01:08:29;98946.61;;;17.10;42.64
46574;BME280;32299;53.366;-1.544;2022-10-04T01:11:00;98941.35;;;17.09;42.75
46574;BME280;32299;53.366;-1.544;2022-10-04T01:13:34;98940.10;;;17.30;43.07
46574;BME280;32299;53.366;-1.544;2022-10-04T01:16:08;98937.11;;;17.06;42.97
46574;BME280;32299;53.366;-1.544;2022-10-04T01:18:37;98928.06;;;17.04;43.31
46574;BME280;32299;53.366;-1.544;2022-10-04T01:21:07;98917.66;;;17.01;43.32
46574;BME280;32299;53.366;-1.544;2022-10-04T01:23:39;98911.28;;;16.94;43.61
46574;BME280;32299;53.366;-1.544;2022-10-04T01:26:38;98903.43;;;16.97;43.65
46574;BME280;32299;53.366;-1.544;2022-10-04T01:29:09;98901.58;;;16.94;43.76
46574;BME280;32299;53.366;-1.544;2022-10-04T01:31:40;98887.94;;;17.03;43.67
46574;BME280;32299;53.366;-1.544;2022-10-04T01:34:11;98886.31;;;17.02;43.72
46574;BME280;32299;53.366;-1.544;2022-10-04T01:36:41;98874.57;;;17.08;43.70
46574;BME280;32299;53.366;-1.544;2022-10-04T01:39:09;98871.83;;;17.11;43.64
46574;BME280;32299;53.366;-1.544;2022-10-04T01:41:42;98864.97;;;17.14;43.79
46574;BME280;32299;53.366;-1.544;2022-10-04T01:44:17;98862.67;;;17.15;43.73
46574;BME280;32299;53.366;-1.544;2022-10-04T01:46:48;98856.74;;;17.17;43.82
46574;BME280;32299;53.366;-1.544;2022-10-04T01:49:18;98859.17;;;17.17;44.00
46574;BME280;32299;53.366;-1.544;2022-10-04T01:51:56;98854.40;;;17.11;44.47
46574;BME280;32299;53.366;-1.544;2022-10-04T01:54:33;98853.05;;;17.36;44.49
46574;BME280;32299;53.366;-1.544;2022-10-04T01:57:06;98848.84;;;17.37;44.41
46574;BME280;32299;53.366;-1.544;2022-10-04T01:59:40;98851.49;;;17.15;44.33
46574;BME280;32299;53.366;-1.544;2022-10-04T02:02:18;98849.63;;;17.18;44.39
46574;BME280;32299;53.366;-1.544;2022-10-04T02:04:51;98848.35;;;17.13;44.52
46574;BME280;32299;53.366;-1.544;2022-10-04T02:07:20;98845.10;;;17.17;44.57
46574;BME280;32299;53.366;-1.544;2022-10-04T02:09:52;98831.89;;;17.22;44.42
46574;BME280;32299;53.366;-1.544;2022-10-04T02:12:28;98826.43;;;17.28;44.18
46574;BME280;32299;53.366;-1.544;2022-10-04T02:15:03;98823.52;;;17.56;44.32
46574;BME280;32299;53.366;-1.544;2022-10-04T02:17:37;98819.98;;;17.29;44.32
46574;BME280;32299;53.366;-1.544;2022-10-04T02:20:10;98820.31;;;17.35;44.18
46574;BME280;32299;53.366;-1.544;2022-10-04T02:22:39;98811.66;;;17.40;44.02
46574;BME280;32299;53.366;-1.544;2022-10-04T02:25:08;98804.68;;;17.47;43.78
46574;BME280;32299;53.366;-1.544;2022-10-04T02:27:36;98797.87;;;17.52;43.69
46574;BME280;32299;53.366;-1.544;2022-10-04T02:30:05;98793.08;;;17.29;43.64
46574;BME280;32299;53.366;-1.544;2022-10-04T02:32:34;98789.73;;;17.51;43.74
46574;BME280;32299;53.366;-1.544;2022-10-04T02:35:03;98780.27;;;17.27;43.75
46574;BME280;32299;53.366;-1.544;2022-10-04T02:37:31;98779.68;;;17.48;43.95
46574;BME280;32299;53.366;-1.544;2022-10-04T02:40:06;98769.69;;;17.46;43.98
46574;BME280;32299;53.366;-1.544;2022-10-04T02:42:38;98763.84;;;17.44;44.06
46574;BME280;32299;53.366;-1.544;2022-10-04T02:45:14;98756.72;;;17.44;44.21
46574;BME280;32299;53.366;-1.544;2022-10-04T02:47:47;98759.69;;;17.43;44.17
46574;BME280;32299;53.366;-1.544;2022-10-04T02:50:22;98756.40;;;17.40;44.35
46574;BME280;32299;53.366;-1.544;2022-10-04T02:52:55;98752.13;;;17.39;44.41
46574;BME280;32299;53.366;-1.544;2022-10-04T02:55:26;98753.25;;;17.37;44.53
46574;BME280;32299;53.366;-1.544;2022-10-04T02:57:54;98748.56;;;17.39;44.36
46574;BME280;32299;53.366;-1.544;2022-10-04T03:00:25;98744.74;;;17.40;44.41
46574;BME280;32299;53.366;-1.544;2022-10-04T03:03:13;98746.62;;;17.43;44.40
46574;BME280;32299;53.366;-1.544;2022-10-04T03:05:42;98739.42;;;17.42;44.14
46574;BME280;32299;53.366;-1.544;2022-10-04T03:08:11;98734.78;;;17.42;44.26
46574;BME280;32299;53.366;-1.544;2022-10-04T03:10:41;98731.18;;;17.48;44.14
46574;BME280;32299;53.366;-1.544;2022-10-04T03:13:11;98737.52;;;17.50;44.01
46574;BME280;32299;53.366;-1.544;2022-10-04T03:15:39;98736.47;;;17.47;44.25
46574;BME280;32299;53.366;-1.544;2022-10-04T03:18:06;98729.14;;;17.46;44.25
46574;BME280;32299;53.366;-1.544;2022-10-04T03:20:36;98721.33;;;17.46;44.26
46574;BME280;32299;53.366;-1.544;2022-10-04T03:23:03;98723.49;;;17.39;44.29
46574;BME280;32299;53.366;-1.544;2022-10-04T03:25:40;98729.78;;;17.41;44.26
46574;BME280;32299;53.366;-1.544;2022-10-04T03:28:09;98724.26;;;17.40;44.45
46574;BME280;32299;53.366;-1.544;2022-10-04T03:30:42;98719.02;;;17.41;44.54
46574;BME280;32299;53.366;-1.544;2022-10-04T03:33:16;98719.81;;;17.43;44.49
46574;BME280;32299;53.366;-1.544;2022-10-04T03:35:48;98721.69;;;17.38;44.45
46574;BME280;32299;53.366;-1.544;2022-10-04T03:38:16;98721.59;;;17.46;44.43
46574;BME280;32299;53.366;-1.544;2022-10-04T03:40:49;98719.57;;;17.09;44.58
46574;BME280;32299;53.366;-1.544;2022-10-04T03:43:18;98719.27;;;17.35;44.60
46574;BME280;32299;53.366;-1.544;2022-10-04T03:45:46;98710.52;;;17.35;44.75
46574;BME280;32299;53.366;-1.544;2022-10-04T03:48:21;98708.90;;;17.38;44.35
46574;BME280;32299;53.366;-1.544;2022-10-04T03:50:52;98712.47;;;17.39;44.43
46574;BME280;32299;53.366;-1.544;2022-10-04T03:53:28;98713.80;;;17.16;44.69
46574;BME280;32299;53.366;-1.544;2022-10-04T03:55:57;98718.55;;;17.34;44.72
46574;BME280;32299;53.366;-1.544;2022-10-04T03:58:27;98710.66;;;17.38;44.55
46574;BME280;32299;53.366;-1.544;2022-10-04T04:01:08;98712.77;;;17.48;44.35
46574;BME280;32299;53.366;-1.544;2022-10-04T04:03:45;98708.05;;;17.52;44.28
46574;BME280;32299;53.366;-1.544;2022-10-04T04:06:16;98710.75;;;17.54;44.06
46574;BME280;32299;53.366;-1.544;2022-10-04T04:08:47;98715.02;;;17.52;44.26
46574;BME280;32299;53.366;-1.544;2022-10-04T04:11:20;98710.68;;;17.57;44.04
46574;BME280;32299;53.366;-1.544;2022-10-04T04:13:54;98703.19;;;17.58;44.07
46574;BME280;32299;53.366;-1.544;2022-10-04T04:16:24;98692.51;;;17.70;43.91
46574;BME280;32299;53.366;-1.544;2022-10-04T04:18:53;98697.42;;;17.66;43.89
46574;BME280;32299;53.366;-1.544;2022-10-04T04:21:22;98700.13;;;17.43;44.03
46574;BME280;32299;53.366;-1.544;2022-10-04T04:23:55;98700.70;;;17.40;44.02
46574;BME280;32299;53.366;-1.544;2022-10-04T04:26:29;98703.99;;;17.62;44.07
46574;BME280;32299;53.366;-1.544;2022-10-04T04:29:05;98704.20;;;17.59;44.13
46574;BME280;32299;53.366;-1.544;2022-10-04T04:31:37;98695.08;;;17.57;44.15
46574;BME280;32299;53.366;-1.544;2022-10-04T04:34:16;98680.99;;;17.62;44.03
46574;BME280;32299;53.366;-1.544;2022-10-04T04:36:44;98668.93;;;17.43;43.94
46574;BME280;32299;53.366;-1.544;2022-10-04T04:39:15;98669.10;;;17.70;43.76
46574;BME280;32299;53.366;-1.544;2022-10-04T04:41:43;98668.48;;;17.74;43.60
46574;BME280;32299;53.366;-1.544;2022-10-04T04:44:16;98673.11;;;17.77;43.60
46574;BME280;32299;53.366;-1.544;2022-10-04T04:46:44;98663.71;;;17.52;43.59
46574;BME280;32299;53.366;-1.544;2022-10-04T04:49:14;98668.80;;;17.57;43.54
46574;BME280;32299;53.366;-1.544;2022-10-04T04:51:47;98670.20;;;17.73;43.73
46574;BME280;32299;53.366;-1.544;2022-10-04T04:54:15;98665.44;;;17.49;43.84
46574;BME280;32299;53.366;-1.544;2022-10-04T04:56:45;98656.28;;;17.71;43.69
46574;BME280;32299;53.366;-1.544;2022-10-04T04:59:14;98647.60;;;17.74;43.62
46574;BME280;32299;53.366;-1.544;2022-10-04T05:01:43;98652.08;;;17.72;43.68
46574;BME280;32299;53.366;-1.544;2022-10-04T05:04:19;98645.51;;;17.73;43.65
46574;BME280;32299;53.366;-1.544;2022-10-04T05:06:58;98640.19;;;17.49;43.65
46574;BME280;32299;53.366;-1.544;2022-10-04T05:09:29;98636.56;;;17.73;43.50
46574;BME280;32299;53.366;-1.544;2022-10-04T05:12:02;98631.03;;;17.74;43.58
46574;BME280;32299;53.366;-1.544;2022-10-04T05:14:30;98631.03;;;17.73;43.54
46574;BME280;32299;53.366;-1.544;2022-10-04T05:16:57;98629.66;;;17.72;43.43
46574;BME280;32299;53.366;-1.544;2022-10-04T05:19:26;98627.90;;;17.69;43.50
46574;BME280;32299;53.366;-1.544;2022-10-04T05:21:57;98631.93;;;17.37;43.95
46574;BME280;32299;53.366;-1.544;2022-10-04T05:24:28;98635.28;;;17.52;44.04
46574;BME280;32299;53.366;-1.544;2022-10-04T05:26:59;98641.34;;;17.54;44.06
46574;BME280;32299;53.366;-1.544;2022-10-04T05:29:31;98633.13;;;17.42;44.35
46574;BME280;32299;53.366;-1.544;2022-10-04T05:32:07;98635.79;;;17.42;44.26
46574;BME280;32299;53.366;-1.544;2022-10-04T05:34:39;98627.65;;;17.39;44.23
46574;BME280;32299;53.366;-1.544;2022-10-04T05:37:19;98633.27;;;17.41;44.26
46574;BME280;32299;53.366;-1.544;2022-10-04T05:40:02;98629.32;;;17.32;44.60
46574;BME280;32299;53.366;-1.544;2022-10-04T05:42:36;98617.81;;;17.55;44.41
46574;BME280;32299;53.366;-1.544;2022-10-04T05:45:13;98609.65;;;17.28;44.48
46574;BME280;32299;53.366;-1.544;2022-10-04T05:47:41;98602.01;;;17.32;44.47
46574;BME280;32299;53.366;-1.544;2022-10-04T05:50:15;98594.80;;;17.32;44.41
46574;BME280;32299;53.366;-1.544;2022-10-04T05:52:43;98598.35;;;17.21;44.61
46574;BME280;32299;53.366;-1.544;2022-10-04T05:55:20;98589.96;;;17.20;44.63
46574;BME280;32299;53.366;-1.544;2022-10-04T05:57:59;98584.94;;;17.17;44.77
46574;BME280;32299;53.366;-1.544;2022-10-04T06:00:37;98587.81;;;17.15;44.72
46574;BME280;32299;53.366;-1.544;2022-10-04T06:03:18;98593.26;;;17.19;44.69
46574;BME280;32299;53.366;-1.544;2022-10-04T06:05:53;98588.99;;;17.13;44.77
46574;BME280;32299;53.366;-1.544;2022-10-04T06:08:30;98583.01;;;17.18;44.74
46574;BME280;32299;53.366;-1.544;2022-10-04T06:11:21;98574.37;;;17.21;44.61
46574;BME280;32299;53.366;-1.544;2022-10-04T06:14:08;98576.42;;;17.22;44.55
46574;BME280;32299;53.366;-1.544;2022-10-04T06:16:53;98560.89;;;17.26;44.55
46574;BME280;32299;53.366;-1.544;2022-10-04T06:19:43;98565.06;;;17.12;44.84
46574;BME280;32299;53.366;-1.544;2022-10-04T06:22:15;98565.58;;;17.15;44.81
46574;BME280;32299;53.366;-1.544;2022-10-04T06:24:46;98562.70;;;16.86;45.05
46574;BME280;32299;53.366;-1.544;2022-10-04T06:27:20;98555.11;;;17.06;44.90
46574;BME280;32299;53.366;-1.544;2022-10-04T06:29:52;98544.77;;;17.09;44.90
46574;BME280;32299;53.366;-1.544;2022-10-04T06:32:34;98548.70;;;17.11;45.00
46574;BME280;32299;53.366;-1.544;2022-10-04T06:35:16;98538.10;;;17.37;44.88
46574;BME280;32299;53.366;-1.544;2022-10-04T06:38:09;98559.12;;;17.02;45.04
46574;BME280;32299;53.366;-1.544;2022-10-04T06:40:55;98546.35;;;17.00;45.24
46574;BME280;32299;53.366;-1.544;2022-10-04T06:43:37;98538.72;;;17.05;45.14
46574;BME280;32299;53.366;-1.544;2022-10-04T06:46:13;98532.08;;;17.22;45.27
46574;BME280;32299;53.366;-1.544;2022-10-04T06:48:59;98525.19;;;16.87;45.44
46574;BME280;32299;53.366;-1.544;2022-10-04T06:51:44;98527.22;;;17.21;45.42
46574;BME280;32299;53.366;-1.544;2022-10-04T06:54:30;98523.19;;;16.95;45.40
46574;BME280;32299;53.366;-1.544;2022-10-04T06:57:23;98517.03;;;17.00;45.42
46574;BME280;32299;53.366;-1.544;2022-10-04T07:00:03;98514.87;;;17.03;45.38
46574;BME280;32299;53.366;-1.544;2022-10-04T07:02:34;98511.52;;;17.04;45.40
46574;BME280;32299;53.366;-1.544;2022-10-04T07:05:14;98516.55;;;17.31;45.60
46574;BME280;32299;53.366;-1.544;2022-10-04T07:07:48;98522.27;;;17.35;45.56
46574;BME280;32299;53.366;-1.544;2022-10-04T07:10:27;98519.31;;;17.11;45.70
46574;BME280;32299;53.366;-1.544;2022-10-04T07:13:12;98518.96;;;17.12;45.54
46574;BME280;32299;53.366;-1.544;2022-10-04T07:15:46;98515.59;;;17.15;45.58
46574;BME280;32299;53.366;-1.544;2022-10-04T07:18:21;98509.43;;;17.14;45.75
46574;BME280;32299;53.366;-1.544;2022-10-04T07:20:56;98492.32;;;17.61;45.89
46574;BME280;32299;53.366;-1.544;2022-10-04T07:23:27;98472.54;;;17.22;45.83
46574;BME280;32299;53.366;-1.544;2022-10-04T07:25:59;98466.89;;;17.25;45.73
46574;BME280;32299;53.366;-1.544;2022-10-04T07:28:32;98474.24;;;17.24;45.79
46574;BME280;32299;53.366;-1.544;2022-10-04T07:31:03;98469.40;;;17.31;45.59
46574;BME280;32299;53.366;-1.544;2022-10-04T07:33:42;98466.04;;;17.25;45.79
46574;BME280;32299;53.366;-1.544;2022-10-04T07:36:12;98468.04;;;17.48;45.79
46574;BME280;32299;53.366;-1.544;2022-10-04T07:38:44;98449.90;;;17.25;45.63
46574;BME280;32299;53.366;-1.544;2022-10-04T07:41:21;98455.19;;;17.20;45.78
46574;BME280;32299;53.366;-1.544;2022-10-04T07:43:54;98439.10;;;17.38;46.01
46574;BME280;32299;53.366;-1.544;2022-10-04T07:46:36;98440.07;;;17.15;45.92
46574;BME280;32299;53.366;-1.544;2022-10-04T07:49:12;98433.39;;;17.59;45.98
46574;BME280;32299;53.366;-1.544;2022-10-04T07:51:54;98436.73;;;17.11;45.82
46574;BME280;32299;53.366;-1.544;2022-10-04T07:54:26;98426.64;;;17.05;46.17
46574;BME280;32299;53.366;-1.544;2022-10-04T07:57:00;98446.38;;;17.61;46.08
46574;BME280;32299;53.366;-1.544;2022-10-04T07:59:39;98437.83;;;17.04;46.28
46574;BME280;32299;53.366;-1.544;2022-10-04T08:02:18;98435.22;;;17.27;46.31
46574;BME280;32299;53.366;-1.544;2022-10-04T08:04:54;98430.34;;;17.16;46.21
46574;BME280;32299;53.366;-1.544;2022-10-04T08:07:29;98445.35;;;17.39;46.44
46574;BME280;32299;53.366;-1.544;2022-10-04T08:10:02;98454.76;;;17.14;46.37
46574;BME280;32299;53.366;-1.544;2022-10-04T08:12:45;98458.12;;;17.46;46.43
46574;BME280;32299;53.366;-1.544;2022-10-04T08:15:31;98452.16;;;17.77;46.14
46574;BME280;32299;53.366;-1.544;2022-10-04T08:18:07;98455.04;;;17.36;46.10
46574;BME280;32299;53.366;-1.544;2022-10-04T08:20:43;98466.98;;;17.40;46.23
46574;BME280;32299;53.366;-1.544;2022-10-04T08:23:24;98466.03;;;17.50;46.03
46574;BME280;32299;53.366;-1.544;2022-10-04T08:26:11;98460.64;;;17.46;46.27
46574;BME280;32299;53.366;-1.544;2022-10-04T08:28:52;98458.86;;;17.59;45.89
46574;BME280;32299;53.366;-1.544;2022-10-04T08:31:32;98436.56;;;17.65;46.09
46574;BME280;32299;53.366;-1.544;2022-10-04T08:34:16;98441.87;;;17.75;45.93
46574;BME280;32299;53.366;-1.544;2022-10-04T08:36:59;98435.08;;;17.82;45.93
46574;BME280;32299;53.366;-1.544;2022-10-04T08:39:39;98432.89;;;17.83;45.82
46574;BME280;32299;53.366;-1.544;2022-10-04T08:42:32;98414.49;;;17.89;45.75
46574;BME280;32299;53.366;-1.544;2022-10-04T08:45:23;98412.49;;;17.89;45.59
46574;BME280;32299;53.366;-1.544;2022-10-04T08:48:15;98392.04;;;17.80;45.79
46574;BME280;32299;53.366;-1.544;2022-10-04T08:52:28;98398.12;;;18.82;45.75
46574;BME280;32299;53.366;-1.544;2022-10-04T08:55:44;98388.64;;;18.97;45.64
46574;BME280;32299;53.366;-1.544;2022-10-04T08:58:15;98387.60;;;18.08;45.45
46574;BME280;32299;53.366;-1.544;2022-10-04T09:00:57;98389.63;;;18.27;45.36
46574;BME280;32299;53.366;-1.544;2022-10-04T09:05:12;98398.74;;;18.95;45.26
46574;BME280;32299;53.366;-1.544;2022-10-04T09:08:05;98381.39;;;18.35;45.07
46574;BME280;32299;53.366;-1.544;2022-10-04T09:10:41;98392.04;;;18.14;45.44
46574;BME280;32299;53.366;-1.544;2022-10-04T09:13:23;98385.70;;;18.35;44.69
46574;BME280;32299;53.366;-1.544;2022-10-04T09:16:04;98391.97;;;18.35;44.70
46574;BME280;32299;53.366;-1.544;2022-10-04T09:18:48;98394.83;;;18.20;44.48
46574;BME280;32299;53.366;-1.544;2022-10-04T09:21:26;98401.90;;;18.48;44.54
46574;BME280;32299;53.366;-1.544;2022-10-04T09:24:19;98402.22;;;18.39;44.69
46574;BME280;32299;53.366;-1.544;2022-10-04T09:27:02;98408.18;;;18.58;44.50
46574;BME280;32299;53.366;-1.544;2022-10-04T09:29:53;98407.52;;;18.57;44.16
46574;BME280;32299;53.366;-1.544;2022-10-04T09:32:45;98415.87;;;18.44;44.56
46574;BME280;32299;53.366;-1.544;2022-10-04T09:35:46;98424.68;;;18.57;44.23
46574;BME280;32299;53.366;-1.544;2022-10-04T09:38:34;98437.44;;;18.55;44.51
46574;BME280;32299;53.366;-1.544;2022-10-04T09:41:23;98445.61;;;18.59;44.61
46574;BME280;32299;53.366;-1.544;2022-10-04T09:44:21;98452.65;;;18.78;44.41
46574;BME280;32299;53.366;-1.544;2022-10-04T09:47:08;98443.89;;;18.73;44.54
46574;BME280;32299;53.366;-1.544;2022-10-04T09:49:54;98454.81;;;18.93;44.37
46574;BME280;32299;53.366;-1.544;2022-10-04T09:52:36;98434.39;;;18.78;44.22
46574;BME280;32299;53.366;-1.544;2022-10-04T09:55:23;98438.03;;;19.14;44.00
46574;BME280;32299;53.366;-1.544;2022-10-04T09:58:07;98430.55;;;19.22;43.99
46574;BME280;32299;53.366;-1.544;2022-10-04T10:00:44;98426.55;;;19.26;43.87
46574;BME280;32299;53.366;-1.544;2022-10-04T10:03:35;98419.19;;;19.28;43.78
46574;BME280;32299;53.366;-1.544;2022-10-04T10:06:24;98441.94;;;19.13;43.59
46574;BME280;32299;53.366;-1.544;2022-10-04T10:09:05;98419.28;;;19.36;43.44
46574;BME280;32299;53.366;-1.544;2022-10-04T10:11:45;98415.77;;;19.22;43.68
46574;BME280;32299;53.366;-1.544;2022-10-04T10:14:36;98439.87;;;19.57;43.74
46574;BME280;32299;53.366;-1.544;2022-10-04T10:17:13;98446.05;;;19.74;43.53
46574;BME280;32299;53.366;-1.544;2022-10-04T10:19:59;98448.78;;;19.27;43.62
46574;BME280;32299;53.366;-1.544;2022-10-04T10:22:58;98450.96;;;19.39;43.38
46574;BME280;32299;53.366;-1.544;2022-10-04T10:25:40;98442.52;;;19.40;42.90
46574;BME280;32299;53.366;-1.544;2022-10-04T10:28:28;98440.02;;;19.64;42.55
46574;BME280;32299;53.366;-1.544;2022-10-04T10:31:18;98451.12;;;19.64;42.52
46574;BME280;32299;53.366;-1.544;2022-10-04T10:34:18;98453.56;;;19.92;42.41
46574;BME280;32299;53.366;-1.544;2022-10-04T10:37:05;98456.67;;;19.42;42.58
46574;BME280;32299;53.366;-1.544;2022-10-04T10:40:05;98455.36;;;19.69;42.47
46574;BME280;32299;53.366;-1.544;2022-10-04T10:42:53;98475.68;;;19.72;42.49
46574;BME280;32299;53.366;-1.544;2022-10-04T10:45:48;98467.10;;;19.49;42.31
46574;BME280;32299;53.366;-1.544;2022-10-04T10:48:32;98470.00;;;19.41;42.40
46574;BME280;32299;53.366;-1.544;2022-10-04T10:51:09;98465.58;;;19.44;42.40
46574;BME280;32299;53.366;-1.544;2022-10-04T10:54:16;98455.51;;;19.41;42.34
46574;BME280;32299;53.366;-1.544;2022-10-04T10:56:59;98452.78;;;19.77;42.49
46574;BME280;32299;53.366;-1.544;2022-10-04T10:59:48;98462.15;;;19.35;42.77
46574;BME280;32299;53.366;-1.544;2022-10-04T11:03:19;98470.02;;;20.35;42.80
46574;BME280;32299;53.366;-1.544;2022-10-04T11:06:39;98465.03;;;20.27;42.87
46574;BME280;32299;53.366;-1.544;2022-10-04T11:09:29;98463.15;;;19.36;43.08
46574;BME280;32299;53.366;-1.544;2022-10-04T11:13:52;98470.15;;;20.62;43.08
46574;BME280;32299;53.366;-1.544;2022-10-04T11:17:12;98461.83;;;20.41;43.05
46574;BME280;32299;53.366;-1.544;2022-10-04T11:20:43;98466.04;;;20.43;42.74
46574;BME280;32299;53.366;-1.544;2022-10-04T11:24:19;98463.28;;;20.41;42.84
46574;BME280;32299;53.366;-1.544;2022-10-04T11:27:00;98469.43;;;19.75;42.76
46574;BME280;32299;53.366;-1.544;2022-10-04T11:29:40;98468.54;;;19.64;42.62
46574;BME280;32299;53.366;-1.544;2022-10-04T11:33:30;98471.90;;;20.62;42.28
46574;BME280;32299;53.366;-1.544;2022-10-04T11:36:22;98461.03;;;19.52;42.49
46574;BME280;32299;53.366;-1.544;2022-10-04T11:40:00;98458.93;;;20.48;42.58
46574;BME280;32299;53.366;-1.544;2022-10-04T11:42:46;98464.97;;;19.46;42.61
46574;BME280;32299;53.366;-1.544;2022-10-04T11:45:32;98467.37;;;19.58;42.61
46574;BME280;32299;53.366;-1.544;2022-10-04T11:48:14;98460.41;;;19.61;42.35
46574;BME280;32299;53.366;-1.544;2022-10-04T11:50:59;98465.88;;;19.87;42.29
46574;BME280;32299;53.366;-1.544;2022-10-04T11:56:03;98471.59;;;20.82;42.53
46574;BME280;32299;53.366;-1.544;2022-10-04T11:58:48;98476.21;;;19.53;42.52
46574;BME280;32299;53.366;-1.544;2022-10-04T12:01:42;98475.70;;;19.55;42.44
46574;BME280;32299;53.366;-1.544;2022-10-04T12:04:30;98468.49;;;19.63;42.16
46574;BME280;32299;53.366;-1.544;2022-10-04T12:07:18;98459.82;;;19.97;42.44
46574;BME280;32299;53.366;-1.544;2022-10-04T12:09:58;98443.88;;;19.59;42.43
46574;BME280;32299;53.366;-1.544;2022-10-04T12:12:40;98443.00;;;19.77;42.51
46574;BME280;32299;53.366;-1.544;2022-10-04T12:15:58;98450.70;;;20.47;42.93
46574;BME280;32299;53.366;-1.544;2022-10-04T12:18:45;98448.16;;;19.61;42.67
46574;BME280;32299;53.366;-1.544;2022-10-04T12:21:54;98456.39;;;20.69;42.53
46574;BME280;32299;53.366;-1.544;2022-10-04T12:24:44;98473.43;;;19.68;42.59
46574;BME280;32299;53.366;-1.544;2022-10-04T12:27:34;98486.26;;;19.76;42.61
46574;BME280;32299;53.366;-1.544;2022-10-04T12:30:53;98477.69;;;19.76;42.57
46574;BME280;32299;53.366;-1.544;2022-10-04T12:33:30;98484.12;;;19.73;42.62
46574;BME280;32299;53.366;-1.544;2022-10-04T12:36:11;98489.10;;;19.85;42.50
46574;BME280;32299;53.366;-1.544;2022-10-04T12:38:53;98503.58;;;19.86;42.70
46574;BME280;32299;53.366;-1.544;2022-10-04T12:41:30;98502.26;;;19.95;42.66
46574;BME280;32299;53.366;-1.544;2022-10-04T12:44:11;98486.96;;;20.02;42.64
46574;BME280;32299;53.366;-1.544;2022-10-04T12:46:53;98480.23;;;20.02;42.65
46574;BME280;32299;53.366;-1.544;2022-10-04T12:49:30;98484.88;;;20.06;42.89
46574;BME280;32299;53.366;-1.544;2022-10-04T12:52:07;98474.99;;;20.03;43.10
46574;BME280;32299;53.366;-1.544;2022-10-04T12:54:41;98471.87;;;20.04;43.17
46574;BME280;32299;53.366;-1.544;2022-10-04T12:57:20;98470.60;;;20.09;43.10
46574;BME280;32299;53.366;-1.544;2022-10-04T12:59:56;98475.27;;;19.52;43.21
46574;BME280;32299;53.366;-1.544;2022-10-04T13:02:35;98460.38;;;19.77;43.17
46574;BME280;32299;53.366;-1.544;2022-10-04T13:05:13;98465.11;;;20.07;43.02
46574;BME280;32299;53.366;-1.544;2022-10-04T13:07:51;98464.01;;;19.77;43.27
46574;BME280;32299;53.366;-1.544;2022-10-04T13:10:30;98461.05;;;19.79;43.19
46574;BME280;32299;53.366;-1.544;2022-10-04T13:13:17;98468.36;;;19.83;43.10
46574;BME280;32299;53.366;-1.544;2022-10-04T13:15:52;98476.96;;;19.68;43.24
46574;BME280;32299;53.366;-1.544;2022-10-04T13:18:27;98475.01;;;19.74;43.16
46574;BME280;32299;53.366;-1.544;2022-10-04T13:21:00;98483.14;;;20.03;43.20
46574;BME280;32299;53.366;-1.544;2022-10-04T13:23:41;98487.96;;;19.78;43.22
46574;BME280;32299;53.366;-1.544;2022-10-04T13:26:28;98482.68;;;19.68;43.32
46574;BME280;32299;53.366;-1.544;2022-10-04T13:29:02;98471.83;;;20.01;43.26
46574;BME280;32299;53.366;-1.544;2022-10-04T13:31:35;98474.05;;;19.83;43.15
46574;BME280;32299;53.366;-1.544;2022-10-04T13:34:14;98465.59;;;20.16;43.13
46574;BME280;32299;53.366;-1.544;2022-10-04T13:36:57;98467.52;;;19.84;43.47
46574;BME280;32299;53.366;-1.544;2022-10-04T13:39:46;98465.99;;;20.05;43.52
46574;BME280;32299;53.366;-1.544;2022-10-04T13:42:34;98461.24;;;20.00;43.82
46574;BME280;32299;53.366;-1.544;2022-10-04T13:45:19;98465.51;;;19.91;43.96
46574;BME280;32299;53.366;-1.544;2022-10-04T13:47:59;98459.14;;;19.88;44.38
46574;BME280;32299;53.366;-1.544;2022-10-04T13:50:41;98443.07;;;19.89;44.35
46574;BME280;32299;53.366;-1.544;2022-10-04T13:53:24;98428.98;;;19.88;44.63
46574;BME280;32299;53.366;-1.544;2022-10-04T13:56:00;98436.01;;;19.92;44.67
46574;BME280;32299;53.366;-1.544;2022-10-04T13:58:39;98428.35;;;19.85;44.65
46574;BME280;32299;53.366;-1.544;2022-10-04T14:01:31;98436.37;;;19.83;44.92
46574;BME280;32299;53.366;-1.544;2022-10-04T14:04:21;98444.06;;;19.85;44.70